KSHD/SHD METAR and TAF weather

Enter ICAO airport designator
Station Type Date Time Source
KSHD METAR 2019/08/24 06:30 UTC NOAA

KSHD 240630Z AUTO 00000KT 10SM OVC060 17/15 A3017 RMK AO2 T01700150


Station Type Date Time Source
KSHD Decoded METAR 2019/08/24 06:30 UTC NOAA

Station name not available
Aug 24, 2019 - 02:30 AM EDT / 2019.08.24 0630 UTC
Wind: Calm:0
Visibility: 10 mile(s):0
Sky conditions: overcast
Temperature: 62.6 F (17.0 C)
Dew Point: 59.0 F (15.0 C)
Relative Humidity: 88%
Pressure (altimeter): 30.17 in. Hg (1021 hPa)
ob: KSHD 240630Z AUTO 00000KT 10SM OVC060 17/15 A3017 RMK AO2 T01700150
cycle: 6

Station Type Date Time Source
KSHD TAF UTC NOAA

Error!

Example: see airport list